createdAt,value
2019-03-24T00:04:13.387Z,91.70
2019-03-24T00:10:16.364Z,91.80
2019-03-24T00:16:19.149Z,91.70
2019-03-24T00:22:21.969Z,92.20
2019-03-24T00:28:25.053Z,92.10
2019-03-24T00:34:27.997Z,92.60
2019-03-24T00:40:30.790Z,92.40
2019-03-24T00:46:33.588Z,92.70
2019-03-24T00:52:36.552Z,92.60
2019-03-24T00:58:39.456Z,92.70
2019-03-24T01:04:42.337Z,92.90
2019-03-24T01:10:45.226Z,92.90
2019-03-24T01:16:48.058Z,93.10
2019-03-24T01:22:50.912Z,92.80
2019-03-24T01:28:53.703Z,93.20
2019-03-24T01:34:56.779Z,92.90
2019-03-24T01:40:59.599Z,92.80
2019-03-24T01:47:02.363Z,92.90
2019-03-24T01:53:05.324Z,92.70
2019-03-24T01:59:08.244Z,92.90
2019-03-24T02:05:11.297Z,92.70
2019-03-24T02:11:14.287Z,93.00
2019-03-24T02:17:17.215Z,93.10
2019-03-24T02:23:20.186Z,93.30
2019-03-24T02:29:22.978Z,93.20
2019-03-24T02:35:25.873Z,93.20
2019-03-24T02:41:28.751Z,93.50
2019-03-24T02:47:31.766Z,93.50
2019-03-24T02:53:34.608Z,93.40
2019-03-24T02:59:37.506Z,93.60
2019-03-24T03:05:40.485Z,93.90
2019-03-24T03:11:43.381Z,93.50
2019-03-24T03:17:46.235Z,93.70
2019-03-24T03:23:52.395Z,93.50
2019-03-24T03:29:55.237Z,93.40
2019-03-24T03:35:58.371Z,93.50
2019-03-24T03:42:01.414Z,93.50
2019-03-24T03:48:04.216Z,93.40
2019-03-24T03:54:07.240Z,93.50
2019-03-24T04:00:11.326Z,93.90
2019-03-24T04:06:14.249Z,93.90
2019-03-24T04:12:17.225Z,93.90
2019-03-24T04:18:20.153Z,93.90
2019-03-24T04:24:23.612Z,94.00
2019-03-24T04:30:26.524Z,94.50
2019-03-24T04:36:29.383Z,94.40
2019-03-24T04:42:32.211Z,94.20
2019-03-24T04:48:35.056Z,94.60
2019-03-24T04:54:38.061Z,94.50
2019-03-24T05:00:41.191Z,93.80
2019-03-24T05:06:44.610Z,94.20
2019-03-24T05:12:47.496Z,94.20
2019-03-24T05:18:50.469Z,94.10
2019-03-24T05:24:53.445Z,94.20
2019-03-24T05:30:56.307Z,94.10
2019-03-24T05:36:59.429Z,94.10
2019-03-24T05:43:02.393Z,93.90
2019-03-24T05:49:05.324Z,93.80
2019-03-24T05:55:08.195Z,94.00
2019-03-24T06:01:11.190Z,93.70
2019-03-24T06:07:14.070Z,93.60
2019-03-24T06:13:16.891Z,93.30
2019-03-24T06:19:19.834Z,93.10
2019-03-24T06:25:23.232Z,92.60
2019-03-24T06:31:27.283Z,92.00
2019-03-24T06:37:30.148Z,91.50
2019-03-24T06:43:33.023Z,90.50
2019-03-24T06:49:35.823Z,86.80
2019-03-24T06:55:38.626Z,79.80
2019-03-24T07:01:41.363Z,74.40
2019-03-24T07:07:44.300Z,71.30
2019-03-24T07:13:47.184Z,67.30
2019-03-24T07:19:50.253Z,62.40
2019-03-24T07:25:53.264Z,57.70
2019-03-24T07:31:56.164Z,56.70
2019-03-24T07:37:59.200Z,54.60
2019-03-24T07:44:02.066Z,53.00
2019-03-24T07:50:06.280Z,52.60
2019-03-24T07:56:09.227Z,52.00
2019-03-24T08:02:12.280Z,49.80
2019-03-24T08:08:15.274Z,47.70
2019-03-24T08:14:18.311Z,47.20
2019-03-24T08:20:21.246Z,45.50
2019-03-24T08:26:26.249Z,42.30
2019-03-24T08:32:29.492Z,42.30
2019-03-24T08:38:32.395Z,42.60
2019-03-24T08:44:35.251Z,41.40
2019-03-24T08:50:38.223Z,40.90
2019-03-24T08:56:41.194Z,41.20
2019-03-24T09:02:44.295Z,40.80
2019-03-24T09:08:49.015Z,41.40
2019-03-24T09:14:51.972Z,41.40
2019-03-24T09:20:54.933Z,44.00
2019-03-24T09:26:59.055Z,44.60
2019-03-24T09:33:02.049Z,42.00
2019-03-24T09:39:06.328Z,42.20
2019-03-24T09:45:09.341Z,41.50
2019-03-24T09:51:12.200Z,43.90
2019-03-24T09:57:15.286Z,43.90
2019-03-24T10:03:18.296Z,43.90
2019-03-24T10:09:21.146Z,44.60
2019-03-24T10:15:24.031Z,44.80
2019-03-24T10:21:27.026Z,44.80
2019-03-24T10:27:30.449Z,44.40
2019-03-24T10:33:33.254Z,45.00
2019-03-24T10:39:36.076Z,45.60
2019-03-24T10:45:39.043Z,45.00
2019-03-24T10:51:42.082Z,44.10
2019-03-24T10:57:44.983Z,44.80
2019-03-24T11:03:48.629Z,45.60
2019-03-24T11:09:51.440Z,46.30
2019-03-24T11:15:54.422Z,45.80
2019-03-24T11:21:57.395Z,46.00
2019-03-24T11:28:00.448Z,45.50
2019-03-24T11:34:03.408Z,45.50
2019-03-24T11:40:07.020Z,46.10
2019-03-24T11:46:09.830Z,47.60
2019-03-24T11:52:12.568Z,47.60
2019-03-24T11:58:15.567Z,47.50
2019-03-24T12:04:18.851Z,47.20
2019-03-24T12:10:21.762Z,47.80
2019-03-24T12:16:25.004Z,47.90
2019-03-24T12:22:28.392Z,47.80
2019-03-24T12:28:31.498Z,47.50
2019-03-24T12:34:34.381Z,46.30
2019-03-24T12:40:38.594Z,46.00
2019-03-24T12:46:42.499Z,45.70
2019-03-24T12:52:45.320Z,46.00
2019-03-24T12:58:48.088Z,45.80
2019-03-24T13:04:50.927Z,45.60
2019-03-24T13:10:53.998Z,46.70
2019-03-24T13:16:56.854Z,43.80
2019-03-24T13:23:00.065Z,43.30
2019-03-24T13:29:03.125Z,43.80
2019-03-24T13:35:06.221Z,44.80
2019-03-24T13:41:09.220Z,43.40
2019-03-24T13:47:13.417Z,42.90
2019-03-24T13:53:17.337Z,41.80
2019-03-24T13:59:20.604Z,40.90
2019-03-24T14:05:23.423Z,40.00
2019-03-24T14:11:26.721Z,40.60
2019-03-24T14:17:29.596Z,41.10
2019-03-24T14:23:37.584Z,41.30
2019-03-24T14:29:44.963Z,41.30
2019-03-24T14:35:49.094Z,42.00
2019-03-24T14:41:52.241Z,42.10
2019-03-24T14:47:55.786Z,43.10
2019-03-24T14:53:58.934Z,42.40
2019-03-24T15:00:02.449Z,41.90
2019-03-24T15:06:05.439Z,40.10
2019-03-24T15:12:13.258Z,41.00
2019-03-24T15:18:16.016Z,40.80
2019-03-24T15:24:18.951Z,40.70
2019-03-24T15:30:22.048Z,40.70
2019-03-24T15:36:24.995Z,41.60
2019-03-24T15:42:27.881Z,41.50
2019-03-24T15:48:30.692Z,42.00
2019-03-24T15:54:33.684Z,42.60
2019-03-24T16:00:44.471Z,42.80
2019-03-24T16:06:47.347Z,43.90
2019-03-24T16:12:50.408Z,44.20
2019-03-24T16:18:53.184Z,44.40
2019-03-24T16:24:56.075Z,45.20
2019-03-24T16:30:58.979Z,45.00
2019-03-24T16:37:02.287Z,45.50
2019-03-24T16:43:05.857Z,46.30
2019-03-24T16:49:09.447Z,47.10
2019-03-24T16:55:12.594Z,47.60
2019-03-24T17:01:15.584Z,49.10
2019-03-24T17:07:19.542Z,50.20
2019-03-24T17:13:22.801Z,50.60
2019-03-24T17:19:26.936Z,51.00
2019-03-24T17:25:30.903Z,51.10
2019-03-24T17:31:34.194Z,51.50
2019-03-24T17:37:37.243Z,51.60
2019-03-24T17:43:40.424Z,51.90
2019-03-24T17:49:43.676Z,57.40
2019-03-24T17:55:48.113Z,64.10
2019-03-24T18:01:51.118Z,66.60
2019-03-24T18:07:54.763Z,68.40
2019-03-24T18:13:57.756Z,70.00
2019-03-24T18:20:00.905Z,71.50
2019-03-24T18:26:04.292Z,72.60
2019-03-24T18:32:07.724Z,73.70
2019-03-24T18:38:10.785Z,74.60
2019-03-24T18:44:13.785Z,75.00
2019-03-24T18:50:17.102Z,75.30
2019-03-24T18:56:20.563Z,75.80
2019-03-24T19:02:23.969Z,76.60
2019-03-24T19:08:28.136Z,76.60
2019-03-24T19:14:31.444Z,76.70
2019-03-24T19:20:34.812Z,77.10
2019-03-24T19:26:37.953Z,77.20
2019-03-24T19:32:41.706Z,77.20
2019-03-24T19:38:44.861Z,77.70
2019-03-24T19:44:47.882Z,78.00
2019-03-24T19:50:52.648Z,77.70
2019-03-24T19:56:56.381Z,77.80
2019-03-24T20:02:59.487Z,77.70
2019-03-24T20:09:04.073Z,77.50
2019-03-24T20:15:10.032Z,77.40
2019-03-24T20:21:13.269Z,77.20
2019-03-24T20:27:16.735Z,76.60
2019-03-24T20:33:19.629Z,76.10
2019-03-24T20:39:22.900Z,76.00
2019-03-24T20:45:26.764Z,75.80
2019-03-24T20:51:29.969Z,75.70
2019-03-24T20:57:33.102Z,75.60
2019-03-24T21:03:36.165Z,75.70
2019-03-24T21:09:40.382Z,75.90
2019-03-24T21:15:43.249Z,75.70
2019-03-24T21:21:46.761Z,76.30
2019-03-24T21:27:50.719Z,76.40
2019-03-24T21:33:55.000Z,76.40
2019-03-24T21:39:57.805Z,76.40
2019-03-24T21:46:01.820Z,76.30
2019-03-24T21:52:05.941Z,77.00
2019-03-24T21:58:09.249Z,76.60
2019-03-24T22:04:12.252Z,76.50
2019-03-24T22:10:15.088Z,76.60
2019-03-24T22:16:17.896Z,78.00
2019-03-24T22:22:20.732Z,78.70
2019-03-24T22:28:23.651Z,79.50
2019-03-24T22:34:26.644Z,79.50
2019-03-24T22:40:31.563Z,80.70
2019-03-24T22:46:34.523Z,80.80
2019-03-24T22:52:37.436Z,81.10
2019-03-24T22:58:40.368Z,83.10
2019-03-24T23:04:43.363Z,83.80
2019-03-24T23:10:46.167Z,83.50
2019-03-24T23:16:49.086Z,83.30
2019-03-24T23:22:51.876Z,82.40
2019-03-24T23:28:54.768Z,81.70
2019-03-24T23:34:57.805Z,81.30
2019-03-24T23:41:00.722Z,81.10
2019-03-24T23:47:03.779Z,81.90
2019-03-24T23:53:06.760Z,83.10
2019-03-24T23:59:09.690Z,83.70
